Estación Meteorológica Peña el Pijo (Robertgarden) [ 09/23/18 02:30:19 CEST ]

Fecha Hora Presion(HPa) Temp (°C) Humedad % Rocio (°C) Viento ( m/s) Direccion Lluvia 1Hora(mm) Lluvia 24H(mm) LLuvia Total(mm)
2018-Jul-27 01:01:40 1010.100 18.4 42 5.2         269.36
2018-Jul-27 02:01:37 1009.800 17.0 45 4.9         269.36
2018-Jul-27 03:02:03 1009.600 16.1 47 4.7         269.36
2018-Jul-27 04:02:10 1009.300 14.8 51 4.8         269.36
2018-Jul-27 05:01:43 1009.000 13.3 55 4.4         269.36
2018-Jul-27 06:02:01 1008.700 12.8 58 4.7         269.36
2018-Jul-27 07:01:23 1009.000 11.6 62 4.5         269.36
2018-Jul-27 08:01:24 1009.000 13.3 62 6.1         269.36
2018-Jul-27 09:01:32 1009.000 20.2 46 8.2         269.36
2018-Jul-27 10:01:22 1008.800 26.9 37 10.9         269.36
2018-Jul-27 11:01:14 1008.600 31.9 25 9.5         269.36
2018-Jul-27 12:01:25 1008.600 35.8 20 9.4         269.36
2018-Jul-27 13:01:59 1008.600 35.1 20 8.8         269.36
2018-Jul-27 14:01:35 1008.200 35.5 19 8.2         269.36
2018-Jul-27 15:01:48 1007.600 37.7 15 6.0         269.36
2018-Jul-27 16:01:33 1007.300 38.3 17 8.4         269.36
2018-Jul-27 17:02:00 1006.800 38.4 17 8.5         269.36
2018-Jul-27 18:01:51 1006.700 38.8 16 7.8         269.36
2018-Jul-27 19:01:35 1006.800 34.6 25 11.5         269.36
2018-Jul-27 20:01:42 1007.300 32.4 28 11.4         269.36
2018-Jul-27 21:01:34 1008.100 27.8 35 10.8         269.36
2018-Jul-27 22:01:51 1009.100 24.1 40 9.7         269.36
2018-Jul-27 23:01:51 1009.900 20.2 43 7.2         269.36

Temperatura Máxima:38°    Temperatura Mínima:11°
Presión Máxima:1010.100 Hpa    Presión Mínima:1006.700 Hpa


Volver